Time;durP1;ratioP1;P1;durP2;ratioP2;P2;SDS_P1;SDS_P2;PMS_P1;PMS_P2;Temp;Humidity;BMP_temperature;BMP_pressure;BME280_temperature;BME280_humidity;BME280_pressure;Samples;Min_cycle;Max_cycle;Signal;HPM_P1;HPM_P2
2022/04/23 00:01:42;;;;;;;15.75;10.63;;;;;;;3.29;62.60;100570.70;1763782;79;21400;-79
2022/04/23 00:04:10;;;;;;;17.57;10.93;;;;;;;3.26;62.69;100571.52;1775052;79;21307;-79
2022/04/23 00:06:37;;;;;;;13.62;10.48;;;;;;;3.25;62.71;100574.06;1794365;79;21486;-79
2022/04/23 00:09:03;;;;;;;17.70;10.88;;;;;;;3.20;62.73;100566.33;1790923;79;21514;-79
2022/04/23 00:11:30;;;;;;;13.30;10.53;;;;;;;3.17;62.75;100567.98;1791188;79;21359;-80
2022/04/23 00:13:59;;;;;;;14.05;10.05;;;;;;;3.11;62.78;100563.69;1788341;79;21370;-80
2022/04/23 00:16:25;;;;;;;15.23;10.95;;;;;;;3.10;63.00;100567.08;1789441;80;21422;-80
2022/04/23 00:18:51;;;;;;;;;;;;;;;3.10;62.97;100558.56;1793923;79;20899;-79
2022/04/23 00:21:18;;;;;;;13.08;10.90;;;;;;;3.08;63.30;100564.92;1791023;79;20706;-79
2022/04/23 00:23:47;;;;;;;17.48;12.00;;;;;;;3.03;63.00;100560.17;1777166;79;20918;-80
2022/04/23 00:26:16;;;;;;;15.00;10.78;;;;;;;2.97;62.96;100560.09;1788697;79;20954;-80
2022/04/23 00:28:42;;;;;;;15.70;11.18;;;;;;;2.92;63.04;100567.68;1783889;80;21582;-80
2022/04/23 00:31:08;;;;;;;17.23;12.00;;;;;;;2.88;63.14;100568.47;1787286;79;21340;-79
2022/04/23 00:33:37;;;;;;;16.35;11.73;;;;;;;2.85;63.17;100563.73;1796057;79;21296;-80
2022/04/23 00:36:10;;;;;;;14.28;10.82;;;;;;;2.85;63.25;100568.42;1796469;79;21470;-80
2022/04/23 00:38:42;;;;;;;15.58;10.55;;;;;;;2.87;63.32;100563.34;1796413;79;20883;-80
2022/04/23 00:41:43;;;;;;;13.30;10.53;;;;;;;2.86;63.25;100560.35;1783641;79;20938;-80
2022/04/23 00:43:46;;;;;;;13.62;11.45;;;;;;;2.82;63.21;100558.59;1766654;79;21451;-80
2022/04/23 00:46:12;;;;;;;15.18;11.10;;;;;;;2.80;63.32;100562.39;1748671;79;22115;-79
2022/04/23 00:48:38;;;;;;;15.05;10.20;;;;;;;2.81;63.46;100567.94;1780805;79;20863;-79
2022/04/23 00:51:03;;;;;;;16.37;11.47;;;;;;;2.81;63.40;100560.70;1796024;78;21131;-79
2022/04/23 00:53:30;;;;;;;19.35;11.68;;;;;;;2.79;63.40;100566.20;1769964;79;21378;-81
2022/04/23 00:55:58;;;;;;;14.15;9.78;;;;;;;2.76;63.46;100562.33;1790843;79;20918;-80
2022/04/23 00:58:26;;;;;;;15.83;10.95;;;;;;;2.73;63.40;100558.45;1789149;79;21302;-81
2022/04/23 01:00:53;;;;;;;14.85;10.88;;;;;;;2.68;63.54;100553.28;1786424;80;21083;-79
2022/04/23 01:03:21;;;;;;;12.10;9.83;;;;;;;2.65;63.50;100551.95;1768478;80;21506;-81
2022/04/23 01:05:47;;;;;;;12.58;10.68;;;;;;;2.61;63.51;100555.30;1758348;81;22257;-80
2022/04/23 01:08:19;;;;;;;16.60;10.65;;;;;;;2.52;63.57;100564.98;1758304;80;21089;-79
2022/04/23 01:10:48;;;;;;;13.60;11.43;;;;;;;2.46;63.71;100572.95;1765178;80;21053;-79
2022/04/23 01:13:15;;;;;;;14.00;11.22;;;;;;;2.40;63.82;100563.50;1758083;81;20962;-81
2022/04/23 01:16:03;;;;;;;15.38;11.25;;;;;;;2.39;63.77;100569.86;1769186;79;20918;-79
2022/04/23 01:18:30;;;;;;;14.15;11.25;;;;;;;2.36;63.91;100564.70;1784860;79;21013;-80
2022/04/23 01:20:59;;;;;;;14.78;11.28;;;;;;;2.38;63.94;100568.14;1781606;80;21018;-79
2022/04/23 01:23:25;;;;;;;;;;;;;;;2.36;63.85;100565.98;1793873;80;20945;-80
2022/04/23 01:25:54;;;;;;;14.45;11.00;;;;;;;2.34;64.26;100565.95;1790053;80;20142;-80
2022/04/23 01:28:23;;;;;;;14.90;11.93;;;;;;;2.32;63.91;100567.62;1760149;80;21025;-79
2022/04/23 01:30:54;;;;;;;14.83;10.95;;;;;;;2.29;63.87;100564.60;1758319;81;21526;-79
2022/04/23 01:33:21;;;;;;;16.95;11.38;;;;;;;2.25;63.91;100559.00;1760101;81;21261;-80
2022/04/23 01:35:47;;;;;;;15.90;11.40;;;;;;;2.22;63.99;100561.50;1760626;80;21031;-80
2022/04/23 01:38:14;;;;;;;18.70;11.05;;;;;;;2.17;64.03;100559.70;1777672;80;21171;-79
2022/04/23 01:40:43;;;;;;;14.60;10.40;;;;;;;2.13;64.12;100551.56;1790577;80;20934;-79
2022/04/23 01:43:09;;;;;;;12.93;10.38;;;;;;;2.12;64.19;100549.42;1789510;79;20981;-80
2022/04/23 01:45:39;;;;;;;13.80;11.20;;;;;;;2.14;64.20;100549.45;1785155;79;21017;-80
2022/04/23 01:48:06;;;;;;;14.38;11.08;;;;;;;2.15;64.32;100548.63;1767109;80;21025;-79
2022/04/23 01:50:34;;;;;;;22.95;11.15;;;;;;;2.15;64.30;100545.66;1791847;79;21021;-79
2022/04/23 01:53:00;;;;;;;13.95;11.18;;;;;;;2.14;64.34;100550.31;1796954;79;21088;-79
2022/04/23 01:55:26;;;;;;;13.25;11.18;;;;;;;2.14;64.35;100544.35;1805995;78;20866;-80
2022/04/23 01:57:52;;;;;;;15.90;11.48;;;;;;;2.13;64.43;100535.84;1805761;78;21021;-79
2022/04/23 02:00:18;;;;;;;15.70;11.00;;;;;;;2.12;64.40;100532.84;1802869;79;20854;-78
2022/04/23 02:02:46;;;;;;;17.10;12.13;;;;;;;2.07;64.39;100540.01;1803473;79;21081;-81
2022/04/23 02:05:13;;;;;;;14.50;11.05;;;;;;;2.01;64.40;100538.63;1808042;79;20875;-79
2022/04/23 02:07:45;;;;;;;14.78;12.03;;;;;;;1.96;64.48;100538.13;1797936;79;20890;-79
2022/04/23 02:10:14;;;;;;;14.80;11.25;;;;;;;1.95;64.56;100535.55;1797728;79;20913;-80
2022/04/23 02:12:42;;;;;;;16.90;12.35;;;;;;;1.96;64.62;100534.72;1795386;79;20882;-79
2022/04/23 02:15:14;;;;;;;17.30;13.15;;;;;;;1.99;64.60;100533.09;1806314;78;21071;-80
2022/04/23 02:17:43;;;;;;;13.65;11.75;;;;;;;1.97;64.64;100536.02;1807415;79;20878;-79
2022/04/23 02:20:15;;;;;;;14.53;11.93;;;;;;;1.92;64.61;100534.23;1791643;79;20890;-79
2022/04/23 02:22:42;;;;;;;14.80;12.47;;;;;;;1.90;64.64;100534.20;1776056;79;21031;-79
2022/04/23 02:25:09;;;;;;;15.78;12.05;;;;;;;1.91;64.72;100532.51;1776599;79;20862;-80
2022/04/23 02:27:47;;;;;;;;;;;;;;;1.86;64.69;100534.97;1803290;79;20870;-79
2022/04/23 02:30:21;;;;;;;16.93;12.18;;;;;;;1.81;65.16;100528.94;1806530;79;20170;-81
2022/04/23 02:32:48;;;;;;;15.15;11.85;;;;;;;1.78;64.95;100527.60;1804102;79;21037;-80
2022/04/23 02:35:16;;;;;;;14.80;11.20;;;;;;;1.78;64.86;100525.05;1782562;79;21394;-79
2022/04/23 02:37:56;;;;;;;18.05;11.78;;;;;;;1.77;64.85;100525.03;1774482;80;21012;-79
2022/04/23 02:40:23;;;;;;;17.25;12.53;;;;;;;1.77;65.03;100518.23;1794616;79;20946;-80
2022/04/23 02:42:53;;;;;;;15.48;11.80;;;;;;;1.79;65.01;100522.95;1785473;79;21096;-81
2022/04/23 02:45:20;;;;;;;15.70;11.85;;;;;;;1.77;64.92;100518.66;1790253;79;21529;-79
2022/04/23 02:47:51;;;;;;;17.95;12.07;;;;;;;1.73;64.91;100520.29;1774275;80;21543;-80
2022/04/23 02:50:27;;;;;;;15.98;12.90;;;;;;;1.70;65.05;100518.95;1802857;79;21299;-79
2022/04/23 02:52:55;;;;;;;15.45;11.75;;;;;;;1.68;65.04;100519.77;1810923;78;21100;-80
2022/04/23 02:55:25;;;;;;;16.07;11.75;;;;;;;1.61;64.99;100517.52;1794744;78;21037;-79
2022/04/23 02:57:52;;;;;;;18.42;12.98;;;;;;;1.55;65.02;100518.70;1775676;80;20902;-80
2022/04/23 03:00:19;;;;;;;13.95;11.38;;;;;;;1.50;65.19;100508.42;1785004;79;21013;-79
2022/04/23 03:02:49;;;;;;;17.45;12.37;;;;;;;1.53;65.17;100510.17;1806009;79;21009;-79
2022/04/23 03:05:17;;;;;;;18.70;12.58;;;;;;;1.55;65.21;100511.06;1791771;78;21010;-79
2022/04/23 03:07:48;;;;;;;17.75;13.38;;;;;;;1.54;65.24;100516.57;1738506;80;21156;-79
2022/04/23 03:10:16;;;;;;;16.52;11.90;;;;;;;1.54;65.34;100519.53;1788765;79;20922;-79
2022/04/23 03:12:44;;;;;;;15.08;11.83;;;;;;;1.52;65.22;100522.05;1796466;79;21480;-79
2022/04/23 03:15:16;;;;;;;16.12;12.07;;;;;;;1.49;65.23;100513.08;1804558;79;21450;-79
2022/04/23 03:17:41;;;;;;;15.53;12.13;;;;;;;1.47;65.24;100513.88;1807161;79;20890;-79
2022/04/23 03:20:12;;;;;;;17.23;13.05;;;;;;;1.47;65.32;100517.70;1807087;79;20921;-79
2022/04/23 03:22:43;;;;;;;16.77;12.73;;;;;;;1.43;65.34;100516.78;1807980;79;21011;-79
2022/04/23 03:25:11;;;;;;;17.73;13.10;;;;;;;1.41;65.44;100506.11;1807886;79;20913;-79
2022/04/23 03:27:38;;;;;;;17.07;12.95;;;;;;;1.43;65.55;100511.69;1798661;79;20875;-79
2022/04/23 03:30:05;;;;;;;17.15;12.73;;;;;;;1.44;65.54;100502.36;1807998;79;20898;-79
2022/04/23 03:32:32;;;;;;;16.15;12.28;;;;;;;1.41;65.57;100502.30;1774452;79;20875;-81
2022/04/23 03:34:59;;;;;;;15.78;12.60;;;;;;;1.44;65.66;100505.77;1802762;79;20882;-80
2022/04/23 03:37:25;;;;;;;16.12;12.20;;;;;;;1.46;65.66;100510.47;1775087;80;21040;-81
2022/04/23 03:39:51;;;;;;;17.65;11.43;;;;;;;1.46;65.60;100509.61;1774558;80;21033;-79
2022/04/23 03:42:18;;;;;;;16.67;12.37;;;;;;;1.42;65.64;100507.83;1774142;80;21012;-80
2022/04/23 03:44:43;;;;;;;17.95;13.00;;;;;;;1.39;65.63;100505.23;1772821;79;21037;-82
2022/04/23 03:47:09;;;;;;;16.27;12.77;;;;;;;1.36;65.70;100507.72;1767904;79;20908;-80
2022/04/23 03:49:35;;;;;;;17.73;13.05;;;;;;;1.37;65.79;100506.47;1750113;79;21025;-79
2022/04/23 03:52:01;;;;;;;19.57;13.40;;;;;;;1.36;65.84;100498.38;1781381;79;20866;-79
2022/04/23 03:54:27;;;;;;;17.55;12.35;;;;;;;1.35;65.73;100500.91;1781675;79;20887;-79
2022/04/23 03:56:53;;;;;;;26.40;15.00;;;;;;;1.31;65.71;100500.84;1776918;79;21643;-81
2022/04/23 03:59:21;;;;;;;16.60;13.68;;;;;;;1.31;65.79;100500.84;1772311;80;21005;-79
2022/04/23 04:01:52;;;;;;;21.35;13.70;;;;;;;1.35;65.91;100503.45;1772428;80;21073;-80
2022/04/23 04:04:20;;;;;;;18.05;13.08;;;;;;;1.35;65.81;100504.31;1776045;80;20918;-79
2022/04/23 04:06:46;;;;;;;18.37;12.60;;;;;;;1.32;65.90;100499.16;1776657;80;21589;-79
2022/04/23 04:09:12;;;;;;;17.82;12.93;;;;;;;1.33;65.90;100507.23;1781521;79;21106;-80
2022/04/23 04:14:24;;;;;;;18.87;12.95;;;;;;;1.34;66.06;100506.41;1775402;80;21262;-79
2022/04/23 04:16:50;;;;;;;16.02;12.28;;;;;;;1.36;66.17;100503.48;1773583;80;21014;-79
2022/04/23 04:19:17;;;;;;;16.65;12.43;;;;;;;1.39;66.26;100505.23;1774764;79;21716;-79
2022/04/23 04:21:43;;;;;;;;;;;;;;;1.48;66.38;100497.77;1776443;80;21513;-79
2022/04/23 04:24:14;;;;;;;19.45;12.35;;;;;;;1.56;66.87;100498.31;1764558;80;20163;-80
2022/04/23 04:26:43;;;;;;;18.23;13.60;;;;;;;1.65;66.48;100499.76;1737077;81;21089;-80
2022/04/23 04:29:11;;;;;;;21.27;14.18;;;;;;;1.73;66.46;100496.48;1771668;80;20907;-79
2022/04/23 04:31:47;;;;;;;17.87;12.70;;;;;;;1.81;66.56;100497.48;1766735;80;21030;-78
2022/04/23 04:34:29;;;;;;;19.30;13.08;;;;;;;1.87;66.49;100502.27;1781206;79;20894;-78
2022/04/23 04:37:05;;;;;;;17.95;12.47;;;;;;;1.93;66.52;100498.55;1759938;80;20922;-79
2022/04/23 04:39:31;;;;;;;17.25;13.10;;;;;;;1.99;66.56;100491.43;1763216;80;20847;-79
2022/04/23 04:41:57;;;;;;;19.92;14.47;;;;;;;2.07;66.58;100494.97;1777274;80;27971;-80
2022/04/23 04:44:25;;;;;;;20.57;13.85;;;;;;;2.14;66.67;100494.61;1754606;81;20947;-80
2022/04/23 04:46:51;;;;;;;18.25;13.45;;;;;;;2.20;66.73;100489.20;1758205;80;20914;-80
2022/04/23 04:49:17;;;;;;;19.55;13.85;;;;;;;2.27;66.77;100491.01;1758739;80;21019;-79
2022/04/23 04:51:43;;;;;;;19.37;12.90;;;;;;;2.36;66.83;100484.33;1757766;78;21120;-79
2022/04/23 04:54:09;;;;;;;20.95;13.88;;;;;;;2.44;66.85;100482.75;1777116;77;20911;-79
2022/04/23 04:56:36;;;;;;;15.30;13.08;;;;;;;2.51;66.88;100483.28;1782458;79;21085;-79
2022/04/23 04:59:02;;;;;;;16.85;13.38;;;;;;;2.62;66.95;100480.44;1793461;79;21318;-79
2022/04/23 05:01:29;;;;;;;16.45;13.32;;;;;;;2.72;67.07;100481.00;1771750;79;21635;-79
2022/04/23 05:03:55;;;;;;;;;;;;;;;2.86;67.15;100483.75;1765512;79;21101;-79
2022/04/23 05:06:21;;;;;;;18.55;13.83;;;;;;;3.03;67.67;100489.93;1762889;81;20258;-79
2022/04/23 05:08:48;;;;;;;19.42;15.35;;;;;;;3.36;67.51;100483.47;1771362;79;26646;-79
2022/04/23 05:11:14;;;;;;;17.35;14.58;;;;;;;3.81;67.69;100481.36;1793444;79;21385;-80
2022/04/23 05:13:41;;;;;;;19.30;15.28;;;;;;;4.35;67.85;100478.79;1791149;79;21264;-80
2022/04/23 05:16:10;;;;;;;16.57;14.17;;;;;;;4.97;67.91;100478.27;1755922;79;21603;-80
2022/04/23 05:18:36;;;;;;;19.27;14.45;;;;;;;5.60;68.03;100478.89;1779375;79;21026;-80
2022/04/23 05:21:04;;;;;;;20.57;13.80;;;;;;;6.19;67.99;100482.38;1794481;79;26661;-80
2022/04/23 05:23:30;;;;;;;20.27;14.78;;;;;;;6.76;67.99;100485.23;1792486;79;21057;-79
2022/04/23 05:25:56;;;;;;;14.73;12.63;;;;;;;7.37;68.08;100483.70;1785924;79;21017;-79
2022/04/23 05:28:23;;;;;;;14.60;12.23;;;;;;;8.02;68.03;100475.11;1773748;79;21454;-79
2022/04/23 05:30:50;;;;;;;14.15;11.33;;;;;;;8.60;67.92;100478.89;1768078;79;21037;-79
2022/04/23 05:33:16;;;;;;;;;;;;;;;9.20;67.94;100479.48;1798962;79;20863;-79
2022/04/23 05:35:43;;;;;;;14.53;11.30;;;;;;;9.77;67.58;100477.80;1796669;79;26510;-80
2022/04/23 05:38:09;;;;;;;11.88;10.50;;;;;;;10.27;67.63;100482.62;1791167;79;20914;-79
2022/04/23 05:40:36;;;;;;;12.03;10.28;;;;;;;10.79;67.52;100486.84;1780990;79;24185;-79
2022/04/23 05:43:02;;;;;;;13.32;9.98;;;;;;;11.56;67.34;100464.92;1763510;81;21647;-79
2022/04/23 05:45:30;;;;;;;11.75;10.40;;;;;;;11.56;67.34;100464.92;1783814;79;21135;-79
2022/04/23 05:47:57;;;;;;;10.98;9.75;;;;;;;12.06;67.32;100478.44;1777550;79;21044;-80
2022/04/23 05:50:23;;;;;;;;;;;;;;;12.29;67.16;100481.33;1798920;79;20879;-80
2022/04/23 05:52:50;;;;;;;10.00;8.95;;;;;;;12.44;66.73;100473.61;1785512;79;20139;-80
2022/04/23 05:55:16;;;;;;;10.80;9.78;;;;;;;12.56;67.08;100473.25;1794124;79;21033;-80
2022/04/23 05:57:42;;;;;;;9.93;8.85;;;;;;;12.81;67.05;100482.53;1757244;81;21617;-80
2022/04/23 06:00:11;;;;;;;10.30;9.08;;;;;;;12.93;66.82;100483.50;1771703;79;20960;-80
2022/04/23 06:02:38;;;;;;;9.73;8.75;;;;;;;13.08;66.89;100480.89;1788132;77;21037;-80
2022/04/23 06:05:05;;;;;;;9.25;8.35;;;;;;;13.19;66.72;100482.32;1794086;79;21012;-80
2022/04/23 06:07:31;;;;;;;9.43;7.87;;;;;;;13.37;66.71;100485.28;1787228;79;21016;-80
2022/04/23 06:09:57;;;;;;;9.33;7.83;;;;;;;13.54;66.74;100481.70;1804388;79;20997;-80
2022/04/23 06:12:31;;;;;;;11.20;8.33;;;;;;;13.73;66.63;100482.00;1766795;79;21067;-79
2022/04/23 06:14:58;;;;;;;9.88;8.38;;;;;;;13.94;66.61;100480.48;1792246;79;21466;-80
2022/04/23 06:17:28;;;;;;;9.65;8.65;;;;;;;14.12;66.55;100479.41;1801798;79;21509;-80
2022/04/23 06:19:55;;;;;;;8.85;7.95;;;;;;;14.28;66.41;100482.80;1794686;79;21099;-80
2022/04/23 06:22:23;;;;;;;10.38;8.08;;;;;;;14.40;66.34;100482.39;1786572;79;21032;-80
2022/04/23 06:24:51;;;;;;;11.55;8.50;;;;;;;14.51;66.22;100486.82;1782372;79;20997;-80
2022/04/23 06:27:18;;;;;;;7.87;7.22;;;;;;;14.58;66.13;100486.53;1790504;79;20925;-81
2022/04/23 06:29:44;;;;;;;;;;;;;;;14.70;66.09;100483.95;1780741;79;21020;-81
2022/04/23 06:32:11;;;;;;;8.88;7.85;;;;;;;14.84;65.42;100489.98;1770701;79;20144;-81
2022/04/23 06:34:38;;;;;;;7.75;7.05;;;;;;;15.00;66.00;100481.17;1781474;78;21505;-80
2022/04/23 06:37:05;;;;;;;10.23;7.10;;;;;;;15.23;65.92;100485.91;1794772;79;21016;-81
2022/04/23 06:39:32;;;;;;;7.62;6.92;;;;;;;15.37;65.70;100483.23;1799868;79;21111;-81
2022/04/23 06:41:59;;;;;;;8.13;7.35;;;;;;;15.44;65.44;100487.31;1795151;78;20926;-81
2022/04/23 06:44:25;;;;;;;7.90;7.10;;;;;;;15.57;65.45;100491.63;1790179;77;21671;-81
2022/04/23 06:46:51;;;;;;;15.23;7.47;;;;;;;15.74;65.52;100488.73;1802740;77;21035;-79
2022/04/23 06:49:17;;;;;;;7.40;6.37;;;;;;;15.87;65.24;100486.05;1790529;77;21036;-80
2022/04/23 06:51:43;;;;;;;6.80;5.87;;;;;;;15.91;65.20;100481.55;1793135;77;21100;-80
2022/04/23 06:54:10;;;;;;;10.48;6.80;;;;;;;16.06;65.16;100484.01;1765214;78;21085;-80
2022/04/23 06:56:38;;;;;;;;;;;;;;;16.16;64.74;100477.02;1750783;81;21080;-80
2022/04/23 06:59:04;;;;;;;6.78;6.08;;;;;;;16.22;64.39;100476.77;1777519;80;20193;-80
2022/04/23 07:01:30;;;;;;;9.18;6.15;;;;;;;16.41;64.85;100469.02;1775990;78;21033;-80
2022/04/23 07:03:56;;;;;;;5.90;5.43;;;;;;;16.54;64.48;100469.34;1761913;80;21049;-81
2022/04/23 07:06:22;;;;;;;7.73;6.87;;;;;;;16.66;64.70;100466.67;1773800;80;20863;-80
2022/04/23 07:08:48;;;;;;;7.13;6.03;;;;;;;16.84;64.53;100464.56;1765972;80;21604;-80
2022/04/23 07:11:14;;;;;;;8.57;5.73;;;;;;;16.95;64.30;100465.39;1762838;80;20891;-80
2022/04/23 07:13:40;;;;;;;10.17;6.50;;;;;;;17.09;64.32;100464.32;1782272;80;21022;-80
2022/04/23 07:16:09;;;;;;;7.00;5.73;;;;;;;17.27;64.24;100462.60;1766352;80;21010;-82
2022/04/23 07:18:35;;;;;;;7.20;6.08;;;;;;;17.30;63.87;100461.16;1776869;80;21038;-81
2022/04/23 07:21:03;;;;;;;8.08;5.87;;;;;;;17.32;63.56;100460.63;1759212;80;20998;-81
2022/04/23 07:26:14;;;;;;;6.37;5.67;;;;;;;17.16;63.58;100460.02;1757852;80;20914;-80
2022/04/23 07:28:40;;;;;;;11.30;9.60;;;;;;;17.26;63.55;100460.91;1768525;80;20957;-79
2022/04/23 07:31:06;;;;;;;12.40;8.90;;;;;;;17.56;63.79;100463.41;1785416;79;21064;-79
2022/04/23 07:39:08;;;;;;;7.00;6.40;;;;;;;19.04;61.73;100461.17;1768277;79;21016;-80
2022/04/23 07:41:35;;;;;;;8.33;7.57;;;;;;;18.85;61.54;100458.67;1765019;80;20954;-80
2022/04/23 07:44:01;;;;;;;10.78;10.00;;;;;;;18.62;61.47;100458.59;1771203;80;28723;-80
2022/04/23 07:46:27;;;;;;;9.27;8.53;;;;;;;18.35;61.31;100459.50;1759825;80;20968;-80
2022/04/23 07:48:53;;;;;;;9.63;8.83;;;;;;;18.11;61.40;100454.22;1761078;80;20981;-80
2022/04/23 07:51:20;;;;;;;13.53;10.98;;;;;;;18.03;61.42;100455.90;1767209;80;21481;-79
2022/04/23 07:53:46;;;;;;;10.05;9.08;;;;;;;18.01;61.27;100447.73;1801032;78;21386;-79
2022/04/23 07:56:12;;;;;;;7.43;6.50;;;;;;;17.91;61.09;100446.03;1802715;77;20878;-79
2022/04/23 07:58:37;;;;;;;6.67;5.97;;;;;;;17.76;60.67;100446.77;1789830;77;20957;-80
2022/04/23 08:01:04;;;;;;;6.03;4.90;;;;;;;17.70;60.77;100441.38;1793035;78;20985;-80
2022/04/23 08:03:30;;;;;;;6.17;5.27;;;;;;;17.70;60.79;100443.14;1833035;77;20878;-79
2022/04/23 08:05:57;;;;;;;5.93;5.37;;;;;;;17.62;60.44;100438.73;1811164;77;20855;-79
2022/04/23 08:08:23;;;;;;;6.05;5.55;;;;;;;17.60;60.46;100440.12;1796097;77;20910;-79
2022/04/23 08:10:49;;;;;;;5.23;4.73;;;;;;;17.65;60.41;100439.91;1813938;77;20890;-80
2022/04/23 08:13:17;;;;;;;7.15;4.85;;;;;;;17.72;60.16;100438.23;1792348;78;22129;-79
2022/04/23 08:15:43;;;;;;;5.87;5.10;;;;;;;17.65;59.77;100433.36;1778728;78;21552;-79
2022/04/23 08:18:46;;;;;;;9.53;5.37;;;;;;;17.52;59.64;100435.25;1786943;78;21025;-80
2022/04/23 08:21:12;;;;;;;4.53;4.12;;;;;;;17.43;59.17;100436.15;1788071;77;21085;-80
2022/04/23 08:23:39;;;;;;;5.15;4.22;;;;;;;17.58;59.34;100432.81;1792163;78;22194;-79
2022/04/23 08:26:05;;;;;;;6.93;4.50;;;;;;;18.06;59.25;100436.58;1804522;77;21009;-79
2022/04/23 08:31:21;;;;;;;5.33;3.47;;;;;;;19.05;58.22;100435.34;1741891;80;21390;-80
2022/04/23 08:33:59;;;;;;;4.12;3.83;;;;;;;19.23;57.48;100433.51;1727638;80;25621;-80
2022/04/23 08:36:30;;;;;;;4.50;4.05;;;;;;;19.29;57.10;100427.44;1738878;80;21466;-80
2022/04/23 08:38:59;;;;;;;4.60;4.20;;;;;;;19.11;56.98;100428.00;1720803;80;21400;-80
2022/04/23 08:41:29;;;;;;;4.97;4.08;;;;;;;18.90;57.03;100419.98;1738547;80;21391;-81
2022/04/23 08:44:03;;;;;;;3.83;3.40;;;;;;;18.70;56.86;100414.98;1749495;81;21024;-81
2022/04/23 08:46:40;;;;;;;;;;;;;;;18.38;56.85;100410.06;1736799;81;21867;-79
2022/04/23 08:49:17;;;;;;;3.62;3.33;;;;;;;18.14;55.44;100405.64;1747769;81;20451;-79
2022/04/23 08:51:54;;;;;;;6.95;3.65;;;;;;;17.93;56.43;100401.02;1737841;81;20945;-79
2022/04/23 08:54:23;;;;;;;;;;;;;;;17.86;56.60;100410.94;1741728;81;21518;-80
2022/04/23 08:56:51;;;;;;;3.87;3.58;;;;;;;17.83;55.71;100407.17;1701066;84;20617;-80
2022/04/23 08:59:20;;;;;;;6.37;2.90;;;;;;;17.74;56.10;100402.39;1703635;82;21577;-79
2022/04/23 09:01:46;;;;;;;12.40;7.80;;;;;;;17.64;55.96;100397.67;1722602;81;20890;-80
2022/04/23 09:04:12;;;;;;;4.92;3.55;;;;;;;17.56;55.91;100397.20;1703087;82;20961;-80
2022/04/23 09:06:42;;;;;;;4.90;4.40;;;;;;;17.46;55.71;100395.48;1707203;82;21481;-79
2022/04/23 09:09:13;;;;;;;3.40;3.17;;;;;;;17.31;55.37;100395.75;1726580;82;21608;-79
2022/04/23 09:11:46;;;;;;;4.25;3.17;;;;;;;17.18;55.30;100396.78;1704676;82;21096;-79
2022/04/23 09:14:33;;;;;;;5.90;3.20;;;;;;;17.12;55.07;100403.63;1716898;81;21090;-79
2022/04/23 09:25:35;;;;;;;4.10;3.30;;;;;;;16.43;54.01;100403.25;1691332;82;20981;-79
2022/04/23 09:28:19;;;;;;;3.40;3.10;;;;;;;16.30;54.16;100392.95;1712013;82;22405;-80
2022/04/23 09:30:48;;;;;;;3.40;3.10;;;;;;;16.29;53.59;100394.31;1714523;81;21461;-80
2022/04/23 09:33:15;;;;;;;4.12;3.60;;;;;;;16.23;53.81;100388.91;1708017;82;21621;-80
2022/04/23 09:36:04;;;;;;;;;;;;;;;16.22;53.69;100394.58;1726050;82;21482;-79
2022/04/23 09:38:32;;;;;;;4.80;3.65;;;;;;;16.16;53.16;100397.45;1712615;82;20463;-79
2022/04/23 09:41:19;;;;;;;6.35;2.92;;;;;;;16.15;53.54;100381.41;1707768;82;21581;-79
2022/04/23 09:43:51;;;;;;;3.45;3.15;;;;;;;16.23;53.52;100381.08;1724267;82;21553;-79
2022/04/23 09:46:17;;;;;;;3.37;3.15;;;;;;;16.29;53.13;100378.20;1704404;82;20958;-79
2022/04/23 09:48:44;;;;;;;4.17;3.25;;;;;;;16.31;53.06;100382.91;1726204;82;20918;-80
2022/04/23 09:51:28;;;;;;;3.40;3.10;;;;;;;16.31;53.04;100376.37;1702306;82;20903;-80
2022/04/23 09:53:55;;;;;;;3.60;3.30;;;;;;;16.36;52.84;100381.40;1702194;82;20930;-80
2022/04/23 09:56:26;;;;;;;3.47;3.25;;;;;;;16.40;52.71;100373.83;1714653;82;20982;-80
2022/04/23 09:58:53;;;;;;;3.50;3.30;;;;;;;16.37;52.53;100370.89;1710743;82;20895;-79
2022/04/23 10:01:21;;;;;;;3.95;3.50;;;;;;;16.38;52.61;100373.89;1710737;82;21041;-80
2022/04/23 10:03:54;;;;;;;2.95;2.70;;;;;;;16.47;52.52;100372.64;1709916;82;20879;-81
2022/04/23 10:06:23;;;;;;;3.52;3.22;;;;;;;16.53;52.54;100375.83;1702560;82;20907;-80
2022/04/23 10:08:52;;;;;;;3.70;3.40;;;;;;;16.62;52.26;100369.36;1722529;81;21423;-80
2022/04/23 10:11:27;;;;;;;4.50;2.77;;;;;;;16.66;52.08;100368.77;1705000;81;20958;-79
2022/04/23 10:13:57;;;;;;;3.72;3.10;;;;;;;16.71;52.20;100368.95;1702330;82;20915;-79
2022/04/23 10:16:36;;;;;;;3.60;3.10;;;;;;;16.85;52.09;100371.78;1705326;82;20887;-80
2022/04/23 10:19:02;;;;;;;3.92;2.77;;;;;;;16.96;51.85;100366.53;1717089;82;27949;-80
2022/04/23 10:21:45;;;;;;;4.00;3.65;;;;;;;17.01;51.70;100372.39;1712565;82;20891;-80
2022/04/23 10:24:41;;;;;;;3.35;3.02;;;;;;;17.00;51.21;100378.07;1703249;82;20871;-80
2022/04/23 10:27:09;;;;;;;3.27;3.02;;;;;;;16.92;51.38;100369.73;1721495;82;20930;-79
2022/04/23 10:29:36;;;;;;;2.77;2.55;;;;;;;16.73;51.18;100371.48;1723679;82;20939;-80
2022/04/23 10:32:17;;;;;;;3.45;2.87;;;;;;;16.58;51.19;100373.48;1715259;82;20910;-80
2022/04/23 10:34:45;;;;;;;3.25;2.62;;;;;;;16.45;51.09;100373.17;1710913;82;20954;-80
2022/04/23 10:37:25;;;;;;;7.00;2.97;;;;;;;16.30;50.95;100374.69;1723041;82;20950;-80
2022/04/23 10:40:01;;;;;;;3.12;2.92;;;;;;;16.21;51.00;100369.86;1696039;82;21216;-79
2022/04/23 10:42:28;;;;;;;3.10;2.90;;;;;;;16.20;51.02;100366.41;1728177;81;20906;-79
2022/04/23 10:44:58;;;;;;;;;;;;;;;16.22;50.93;100358.05;1710589;82;20966;-79
2022/04/23 10:47:34;;;;;;;2.62;2.47;;;;;;;16.32;50.65;100355.05;1688036;82;20136;-79
2022/04/23 10:50:23;;;;;;;3.17;2.98;;;;;;;16.46;50.79;100343.55;1712087;82;20899;-80
2022/04/23 10:53:04;;;;;;;2.95;2.47;;;;;;;16.47;50.60;100346.09;1714453;82;21069;-80
2022/04/23 10:55:31;;;;;;;3.08;2.87;;;;;;;16.52;50.63;100342.81;1713599;81;21061;-80
2022/04/23 10:58:02;;;;;;;2.95;2.75;;;;;;;16.57;50.56;100348.29;1698130;81;21056;-80
2022/04/23 11:00:30;;;;;;;3.98;2.80;;;;;;;16.55;50.41;100346.59;1724906;81;21748;-80
2022/04/23 11:03:10;;;;;;;3.05;2.85;;;;;;;16.55;50.41;100345.29;1726683;80;21124;-79
2022/04/23 11:14:47;;;;;;;2.70;2.50;;;;;;;16.63;50.06;100349.32;1707255;81;20872;-79
2022/04/23 11:17:17;;;;;;;3.67;2.87;;;;;;;16.61;50.02;100342.02;1715092;80;20950;-79
2022/04/23 11:19:45;;;;;;;3.42;3.12;;;;;;;16.57;49.92;100343.91;1700702;82;20902;-79
2022/04/23 11:22:13;;;;;;;3.70;3.12;;;;;;;16.53;49.80;100341.90;1719873;81;20951;-79
2022/04/23 11:24:39;;;;;;;4.12;3.47;;;;;;;16.48;49.67;100337.34;1732935;80;20925;-79
2022/04/23 11:27:08;;;;;;;9.90;3.87;;;;;;;16.44;49.68;100338.39;1734916;80;20966;-79
2022/04/23 11:29:34;;;;;;;3.77;3.40;;;;;;;16.45;49.67;100336.17;1708997;81;20974;-79
2022/04/23 11:32:02;;;;;;;3.30;3.00;;;;;;;16.44;49.44;100339.70;1710702;81;20962;-80
2022/04/23 11:34:28;;;;;;;2.83;2.63;;;;;;;16.41;49.37;100335.08;1712609;81;20875;-80
2022/04/23 11:36:54;;;;;;;2.60;2.43;;;;;;;16.47;49.28;100332.19;1732057;80;20957;-80
2022/04/23 11:39:31;;;;;;;2.80;2.60;;;;;;;16.47;49.28;100332.19;1717293;81;21033;-80
2022/04/23 11:41:57;;;;;;;3.10;2.90;;;;;;;16.48;49.21;100324.75;1748007;80;26639;-79
2022/04/23 11:47:13;;;;;;;4.45;2.87;;;;;;;16.43;49.09;100321.04;1734060;80;20974;-79
2022/04/23 11:49:39;;;;;;;3.22;3.02;;;;;;;16.50;49.05;100323.77;1744876;80;21053;-80
2022/04/23 11:52:12;;;;;;;3.30;2.60;;;;;;;16.58;48.98;100325.19;1724596;81;21072;-79
2022/04/23 11:54:42;;;;;;;4.47;2.67;;;;;;;16.59;48.86;100319.89;1701740;82;21726;-80
2022/04/23 11:57:14;;;;;;;3.40;3.17;;;;;;;16.61;48.83;100315.91;1739598;80;21156;-81
2022/04/23 11:59:44;;;;;;;4.40;3.85;;;;;;;16.68;48.87;100318.63;1779736;78;20898;-80
2022/04/23 12:02:25;;;;;;;;;;;;;;;16.72;48.65;100318.87;1789829;78;20927;-80
2022/04/23 12:04:53;;;;;;;3.20;2.92;;;;;;;16.73;48.27;100318.81;1771296;78;20129;-79
2022/04/23 12:07:23;;;;;;;4.95;3.50;;;;;;;16.75;48.66;100315.67;1781441;78;20954;-79